Time;durP1;ratioP1;P1;durP2;ratioP2;P2;SDS_P1;SDS_P2;PMS_P1;PMS_P2;Temp;Humidity;BMP_temperature;BMP_pressure;BME280_temperature;BME280_humidity;BME280_pressure;Samples;Min_cycle;Max_cycle;Signal;HPM_P1;HPM_P2
2022/02/01 00:01:29;;;;;;;4.97;0.60;;;;;;;-0.29;67.53;98218.59;1793940;77;20884;-51
2022/02/01 00:03:57;;;;;;;1.60;0.43;;;;;;;-0.28;67.51;98228.26;1796151;78;20863;-51
2022/02/01 00:06:32;;;;;;;3.67;0.67;;;;;;;-0.27;67.48;98231.77;1788245;78;20950;-51
2022/02/01 00:09:00;;;;;;;0.97;0.50;;;;;;;-0.27;67.37;98226.03;1758203;79;20891;-52
2022/02/01 00:14:33;;;;;;;3.13;0.67;;;;;;;-0.26;67.26;98229.54;1794867;78;20909;-51
2022/02/01 00:35:25;;;;;;;3.20;0.68;;;;;;;-0.25;66.91;98241.37;1769510;78;21364;-50
2022/02/01 00:39:11;;;;;;;2.23;0.53;;;;;;;-0.21;66.83;98240.84;1762046;79;26412;-53
2022/02/01 00:41:47;;;;;;;2.63;0.50;;;;;;;-0.24;66.83;98243.10;1739169;81;21488;-49
2022/02/01 00:44:06;;;;;;;1.80;0.50;;;;;;;-0.23;66.79;98243.52;1740385;81;21233;-52
2022/02/01 00:46:34;;;;;;;3.30;0.80;;;;;;;-0.22;66.69;98246.58;1742299;81;20958;-50
2022/02/01 00:49:01;;;;;;;1.77;0.50;;;;;;;-0.23;66.73;98247.48;1733219;81;21018;-49
2022/02/01 00:51:27;;;;;;;2.37;0.53;;;;;;;-0.23;66.69;98251.45;1733663;81;21318;-50
2022/02/01 00:53:53;;;;;;;1.53;0.60;;;;;;;-0.23;66.58;98248.80;1734723;81;21279;-50
2022/02/01 00:56:20;;;;;;;1.73;0.93;;;;;;;-0.24;66.59;98255.00;1731651;81;21475;-52
2022/02/01 00:58:46;;;;;;;1.97;0.60;;;;;;;-0.23;66.62;98247.48;1726784;81;20995;-51
2022/02/01 01:01:13;;;;;;;3.03;0.50;;;;;;;-0.23;66.54;98248.80;1727994;81;21381;-49
2022/02/01 01:03:40;;;;;;;1.47;0.50;;;;;;;-0.23;66.54;98250.58;1736159;81;21495;-50
2022/02/01 01:06:06;;;;;;;2.03;0.60;;;;;;;-0.25;66.66;98247.11;1729560;81;21524;-51
2022/02/01 01:08:33;;;;;;;4.13;0.70;;;;;;;-0.26;66.64;98249.38;1726915;81;22333;-49
2022/02/01 01:11:00;;;;;;;2.90;0.50;;;;;;;-0.27;66.69;98249.83;1726558;81;21028;-52
2022/02/01 01:45:51;;;;;;;1.97;0.60;;;;;;;-0.29;66.96;98252.95;1649668;85;21470;-52
2022/02/01 01:53:34;;;;;;;2.60;0.60;;;;;;;-0.29;66.95;98266.17;1649247;85;20202;-49
2022/02/01 01:56:01;;;;;;;2.00;0.93;;;;;;;-0.30;67.03;98267.54;1646707;85;21021;-48
2022/02/01 01:58:28;;;;;;;4.47;0.53;;;;;;;-0.30;67.06;98268.41;1627074;85;21030;-50
2022/02/01 02:01:11;;;;;;;2.80;0.53;;;;;;;-0.28;67.00;98270.56;1647252;85;22227;-49
2022/02/01 02:03:40;;;;;;;2.83;0.50;;;;;;;-0.29;67.01;98275.89;1647730;85;21609;-51
2022/02/01 02:06:06;;;;;;;2.20;0.70;;;;;;;-0.28;66.99;98275.84;1647701;85;21105;-52
2022/02/01 02:08:33;;;;;;;5.00;0.80;;;;;;;-0.29;66.96;98275.44;1645343;85;21218;-53
2022/02/01 02:11:06;;;;;;;1.80;0.60;;;;;;;-0.29;66.93;98279.41;1646885;85;21040;-52
2022/02/01 02:16:25;;;;;;;4.80;0.90;;;;;;;-0.28;66.93;98278.49;1648146;85;21066;-50
2022/02/01 02:18:52;;;;;;;2.57;0.80;;;;;;;-0.29;66.84;98271.47;1648942;85;21068;-51
2022/02/01 02:21:19;;;;;;;3.57;0.80;;;;;;;-0.28;66.88;98271.88;1646646;85;21557;-50
2022/02/01 02:23:45;;;;;;;6.30;1.37;;;;;;;-0.28;66.81;98274.98;1647053;85;21467;-50
2022/02/01 02:26:16;;;;;;;3.17;0.87;;;;;;;-0.29;66.82;98275.44;1648643;85;22077;-48
2022/02/01 02:28:45;;;;;;;7.73;1.00;;;;;;;-0.28;66.78;98271.88;1646975;85;21145;-51
2022/02/01 02:31:11;;;;;;;4.03;0.80;;;;;;;-0.30;66.78;98278.98;1650281;85;20946;-50
2022/02/01 02:33:38;;;;;;;7.77;1.00;;;;;;;-0.31;66.83;98282.53;1650961;85;21107;-52
2022/02/01 02:36:13;;;;;;;3.23;0.90;;;;;;;-0.30;66.86;98292.66;1648998;85;21103;-52
2022/02/01 02:38:45;;;;;;;2.03;0.70;;;;;;;-0.30;66.78;98294.84;1656134;84;20938;-52
2022/02/01 02:46:24;;;;;;;2.87;0.57;;;;;;;-0.31;66.66;98309.43;1668255;84;28234;-52
2022/02/01 02:48:50;;;;;;;8.17;0.70;;;;;;;-0.34;66.64;98308.21;1671551;84;21364;-51
2022/02/01 02:51:18;;;;;;;3.83;0.67;;;;;;;-0.35;66.62;98315.27;1668263;84;21144;-51
2022/02/01 02:53:44;;;;;;;1.07;0.60;;;;;;;-0.34;66.61;98315.66;1673536;84;20915;-51
2022/02/01 02:56:11;;;;;;;4.20;0.70;;;;;;;-0.34;66.68;98306.41;1672902;84;20931;-52
2022/02/01 02:58:37;;;;;;;3.83;0.70;;;;;;;-0.33;66.68;98311.23;1672024;84;20939;-53
2022/02/01 03:01:04;;;;;;;6.23;0.73;;;;;;;-0.34;66.67;98319.63;1670060;84;20978;-52
2022/02/01 03:03:30;;;;;;;6.27;0.73;;;;;;;-0.34;66.73;98313.50;1672798;84;21063;-53
2022/02/01 03:05:56;;;;;;;4.50;0.80;;;;;;;-0.33;66.78;98316.52;1670736;84;20966;-51
2022/02/01 03:08:24;;;;;;;2.80;0.60;;;;;;;-0.33;66.80;98319.17;1685041;83;20948;-52
2022/02/01 03:10:50;;;;;;;4.73;0.70;;;;;;;-0.34;66.90;98322.75;1720478;82;20938;-52
2022/02/01 03:13:27;;;;;;;1.37;0.60;;;;;;;-0.34;66.97;98322.27;1718782;82;20910;-52
2022/02/01 03:16:08;;;;;;;4.03;0.60;;;;;;;-0.35;67.03;98325.84;1718753;82;21318;-52
2022/02/01 03:21:04;;;;;;;3.22;0.57;;;;;;;-0.37;67.14;98331.63;1719400;82;22126;-51
2022/02/01 03:23:30;;;;;;;2.17;0.60;;;;;;;-0.36;67.28;98328.53;1720279;82;20938;-52
2022/02/01 03:25:56;;;;;;;4.10;0.63;;;;;;;-0.40;67.28;98327.73;1719892;82;20910;-53
2022/02/01 03:28:23;;;;;;;5.00;0.87;;;;;;;-0.43;67.38;98330.03;1722162;82;21344;-53
2022/02/01 03:30:49;;;;;;;4.27;0.60;;;;;;;-0.44;67.40;98335.34;1714900;82;20952;-52
2022/02/01 03:33:15;;;;;;;3.10;0.77;;;;;;;-0.47;67.48;98338.94;1714856;82;20925;-52
2022/02/01 03:35:42;;;;;;;4.83;0.60;;;;;;;-0.47;67.57;98340.70;1720974;82;20905;-51
2022/02/01 03:38:08;;;;;;;4.60;0.67;;;;;;;-0.48;67.63;98334.55;1719786;81;20897;-52
2022/02/01 03:40:34;;;;;;;2.67;0.70;;;;;;;-0.50;67.66;98342.09;1730444;81;22228;-53
2022/02/01 03:43:01;;;;;;;5.80;0.80;;;;;;;-0.53;67.78;98336.46;1734166;81;20911;-53
2022/02/01 03:45:27;;;;;;;4.17;0.70;;;;;;;-0.54;67.82;98333.85;1732433;81;22013;-52
2022/02/01 03:47:53;;;;;;;3.43;0.60;;;;;;;-0.54;67.84;98334.72;1730936;81;21368;-52
2022/02/01 03:50:20;;;;;;;3.97;0.70;;;;;;;-0.51;67.92;98335.94;1728810;81;21091;-52
2022/02/01 03:52:47;;;;;;;9.33;1.17;;;;;;;-0.50;67.93;98342.09;1728411;81;21746;-52
2022/02/01 03:55:13;;;;;;;4.27;0.70;;;;;;;-0.53;67.91;98337.78;1727404;81;21375;-51
2022/02/01 03:57:40;;;;;;;3.20;0.73;;;;;;;-0.54;67.97;98338.69;1728328;81;21535;-52
2022/02/01 04:00:08;;;;;;;5.10;0.80;;;;;;;-0.53;67.95;98347.03;1729608;81;21084;-53
2022/02/01 04:02:36;;;;;;;4.73;0.70;;;;;;;-0.55;67.95;98350.16;1730441;81;21071;-51
2022/02/01 04:05:03;;;;;;;4.23;0.90;;;;;;;-0.57;67.96;98362.54;1728412;81;22762;-52
2022/02/01 04:07:31;;;;;;;2.97;0.70;;;;;;;-0.60;68.02;98358.67;1729625;81;21031;-52
2022/02/01 04:09:57;;;;;;;4.50;0.73;;;;;;;-0.62;68.02;98358.30;1727460;81;21088;-52
2022/02/01 04:12:24;;;;;;;2.53;0.73;;;;;;;-0.64;68.06;98366.70;1725944;81;22160;-52
2022/02/01 04:14:54;;;;;;;2.07;0.63;;;;;;;-0.65;68.06;98363.19;1732053;81;21545;-53
2022/02/01 04:17:19;;;;;;;2.80;0.70;;;;;;;-0.65;68.09;98362.33;1728620;81;21095;-53
2022/02/01 04:19:47;;;;;;;4.20;0.70;;;;;;;-0.64;68.09;98361.42;1730172;81;21031;-52
2022/02/01 04:22:16;;;;;;;5.17;1.80;;;;;;;-0.65;68.11;98371.13;1728015;81;22625;-52
2022/02/01 04:24:44;;;;;;;2.40;0.80;;;;;;;-0.66;68.10;98368.06;1730037;81;21115;-52
2022/02/01 04:27:17;;;;;;;7.83;0.83;;;;;;;-0.68;68.08;98367.70;1728942;81;21022;-53
2022/02/01 04:29:44;;;;;;;3.10;0.87;;;;;;;-0.71;68.10;98367.32;1728048;81;22506;-53
2022/02/01 04:32:08;;;;;;;8.73;0.90;;;;;;;-0.73;68.16;98374.41;1730746;81;20894;-53
2022/02/01 04:34:34;;;;;;;4.40;0.67;;;;;;;-0.76;68.21;98374.47;1729039;81;21064;-52
2022/02/01 04:37:01;;;;;;;6.43;1.70;;;;;;;-0.79;68.25;98373.25;1730504;81;21045;-53
2022/02/01 04:39:27;;;;;;;6.27;1.00;;;;;;;-0.82;68.30;98375.51;1720198;81;21037;-52
2022/02/01 04:41:53;;;;;;;3.90;0.90;;;;;;;-0.84;68.32;98373.34;1716550;82;21313;-52
2022/02/01 04:44:20;;;;;;;7.47;1.40;;;;;;;-0.83;68.39;98376.86;1722397;82;21368;-52
2022/02/01 04:46:46;;;;;;;6.50;0.80;;;;;;;-0.85;68.40;98378.21;1712272;82;22353;-52
2022/02/01 04:49:13;;;;;;;5.13;1.20;;;;;;;-0.85;68.34;98383.49;1714439;82;21632;-53
2022/02/01 04:51:40;;;;;;;5.43;1.03;;;;;;;-0.86;68.37;98375.64;1716086;82;21736;-52
2022/02/01 04:54:07;;;;;;;2.23;0.90;;;;;;;-0.85;68.43;98383.49;1715626;82;21138;-53
2022/02/01 04:56:35;;;;;;;3.73;1.03;;;;;;;-0.85;68.43;98379.53;1717061;82;21461;-52
2022/02/01 04:59:02;;;;;;;1.57;0.70;;;;;;;-0.84;68.39;98387.88;1717900;82;21103;-53
2022/02/01 05:01:37;;;;;;;8.53;1.10;;;;;;;-0.85;68.40;98390.09;1718734;82;21322;-52
2022/02/01 05:03:57;;;;;;;6.67;0.90;;;;;;;-0.89;68.35;98392.41;1715850;82;21053;-53
2022/02/01 05:06:25;;;;;;;4.93;1.10;;;;;;;-0.91;68.34;98399.95;1717118;82;21135;-52
2022/02/01 05:08:52;;;;;;;5.23;0.70;;;;;;;-0.93;68.40;98397.34;1716892;82;21115;-52
2022/02/01 05:11:20;;;;;;;6.83;1.00;;;;;;;-0.94;68.43;98402.23;1716302;82;20986;-53
2022/02/01 05:16:40;;;;;;;4.33;0.87;;;;;;;-0.95;68.41;98418.12;1714116;82;21074;-53
2022/02/01 05:19:05;;;;;;;6.03;1.00;;;;;;;-0.96;68.47;98417.25;1712295;82;22285;-52
2022/02/01 05:21:32;;;;;;;4.65;1.07;;;;;;;-0.97;68.42;98423.87;1715576;82;21032;-53
2022/02/01 05:24:01;;;;;;;7.73;1.77;;;;;;;-1.00;68.42;98422.17;1714482;81;21131;-52
2022/02/01 05:26:27;;;;;;;6.00;1.10;;;;;;;-1.02;68.51;98428.41;1714869;82;21138;-53
2022/02/01 05:28:53;;;;;;;9.50;2.10;;;;;;;-1.05;68.49;98438.59;1721061;82;21037;-53
2022/02/01 05:31:21;;;;;;;4.23;1.13;;;;;;;-1.08;68.48;98439.97;1714917;82;21175;-53
2022/02/01 05:33:48;;;;;;;4.27;0.97;;;;;;;-1.11;68.56;98445.34;1713372;82;21037;-53
2022/02/01 05:36:14;;;;;;;7.00;1.00;;;;;;;-1.13;68.62;98448.91;1716494;82;21056;-53
2022/02/01 05:38:40;;;;;;;6.33;1.40;;;;;;;-1.15;68.67;98456.85;1715171;82;21080;-51
2022/02/01 05:41:09;;;;;;;3.27;0.90;;;;;;;-1.17;68.65;98452.92;1714963;82;21080;-52
2022/02/01 05:43:36;;;;;;;6.27;1.40;;;;;;;-1.17;68.73;98462.16;1716066;82;21182;-53
2022/02/01 05:46:03;;;;;;;11.10;1.20;;;;;;;-1.15;68.70;98470.92;1718063;82;22298;-53
2022/02/01 05:48:29;;;;;;;5.10;0.93;;;;;;;-1.18;68.67;98472.75;1714304;82;21102;-53
2022/02/01 05:50:56;;;;;;;6.13;1.40;;;;;;;-1.19;68.68;98469.23;1714259;82;21063;-53
2022/02/01 05:53:22;;;;;;;6.93;1.20;;;;;;;-1.20;68.74;98474.58;1711226;82;21125;-54
2022/02/01 05:55:50;;;;;;;4.63;1.13;;;;;;;-1.22;68.77;98473.28;1715866;82;21137;-52
2022/02/01 05:58:16;;;;;;;11.73;1.30;;;;;;;-1.21;68.74;98492.19;1714335;82;21038;-52
2022/02/01 06:00:43;;;;;;;5.13;1.33;;;;;;;-1.22;68.78;98491.77;1714905;82;20927;-52
2022/02/01 06:03:10;;;;;;;9.03;1.33;;;;;;;-1.23;68.81;98490.03;1719002;82;21365;-53
2022/02/01 06:05:36;;;;;;;5.63;1.20;;;;;;;-1.20;68.79;98502.30;1715734;82;21449;-53
2022/02/01 06:08:03;;;;;;;6.67;1.20;;;;;;;-1.19;68.74;98504.02;1717638;82;21536;-53
2022/02/01 06:10:30;;;;;;;5.77;1.20;;;;;;;-1.19;68.71;98504.89;1716309;82;21405;-56
2022/02/01 06:12:56;;;;;;;7.93;1.37;;;;;;;-1.18;68.68;98504.44;1679546;84;20894;-52
2022/02/01 06:15:26;;;;;;;5.07;1.10;;;;;;;-1.19;68.67;98506.20;1720228;82;20941;-53
2022/02/01 06:17:53;;;;;;;4.97;1.00;;;;;;;-1.19;68.67;98506.66;1720420;82;20951;-52
2022/02/01 06:20:19;;;;;;;7.73;1.17;;;;;;;-1.17;68.65;98524.21;1677541;84;21411;-52
2022/02/01 06:22:45;;;;;;;6.00;1.23;;;;;;;-1.16;68.62;98529.05;1667331;85;20976;-53
2022/02/01 06:25:12;;;;;;;7.27;1.53;;;;;;;-1.14;68.61;98531.21;1716458;82;20895;-52
2022/02/01 06:27:38;;;;;;;6.20;1.10;;;;;;;-1.12;68.58;98530.73;1716631;82;21378;-53
2022/02/01 06:30:09;;;;;;;6.07;1.03;;;;;;;-1.10;68.51;98532.00;1717919;82;20908;-51
2022/02/01 06:32:39;;;;;;;6.90;1.53;;;;;;;-1.10;68.41;98527.59;1718254;82;20943;-52
2022/02/01 06:35:07;;;;;;;4.27;1.13;;;;;;;-1.08;68.33;98531.52;1716569;82;20933;-52
2022/02/01 06:37:33;;;;;;;3.17;0.80;;;;;;;-1.09;68.27;98530.66;1714997;82;21018;-53
2022/02/01 06:40:01;;;;;;;8.10;2.53;;;;;;;-1.08;68.33;98535.48;1719275;82;20933;-53
2022/02/01 06:42:28;;;;;;;8.97;1.50;;;;;;;-1.08;68.32;98536.36;1715708;82;21323;-52
2022/02/01 06:44:54;;;;;;;8.27;1.40;;;;;;;-1.07;68.31;98538.09;1715078;82;22228;-54
2022/02/01 06:47:20;;;;;;;6.13;1.40;;;;;;;-1.02;68.30;98543.30;1708846;82;21586;-53
2022/02/01 06:49:46;;;;;;;7.20;1.00;;;;;;;-0.99;68.23;98541.45;1714257;82;21092;-51
2022/02/01 06:52:13;;;;;;;8.67;1.30;;;;;;;-0.95;68.13;98543.59;1714666;82;21008;-52
2022/02/01 06:54:40;;;;;;;6.03;1.40;;;;;;;-0.94;68.00;98554.13;1717838;82;20910;-51
2022/02/01 06:57:07;;;;;;;2.97;1.00;;;;;;;-0.92;67.99;98554.94;1717759;82;21424;-51
2022/02/01 06:59:33;;;;;;;4.13;1.47;;;;;;;-0.89;67.91;98552.69;1717110;82;20914;-51
2022/02/01 07:01:59;;;;;;;5.07;1.40;;;;;;;-0.88;67.80;98553.11;1716854;82;20906;-52
2022/02/01 07:04:26;;;;;;;7.47;1.10;;;;;;;-0.88;67.72;98559.72;1715409;82;21119;-52
2022/02/01 07:06:52;;;;;;;5.97;1.00;;;;;;;-0.90;67.68;98567.66;1716921;82;21030;-52
2022/02/01 07:09:21;;;;;;;6.23;1.17;;;;;;;-0.90;67.69;98565.02;1712962;82;21151;-53
2022/02/01 07:11:46;;;;;;;9.27;1.90;;;;;;;-0.90;67.67;98570.30;1722056;82;20966;-53
2022/02/01 07:14:13;;;;;;;6.47;1.20;;;;;;;-0.87;67.74;98579.95;1715507;82;21028;-52
2022/02/01 07:16:39;;;;;;;8.97;1.33;;;;;;;-0.86;67.73;98575.09;1717712;82;21232;-53
2022/02/01 07:19:05;;;;;;;5.87;1.13;;;;;;;-0.83;67.70;98577.20;1716166;82;21116;-53
2022/02/01 07:21:32;;;;;;;6.17;1.20;;;;;;;-0.80;67.59;98583.75;1713509;82;21074;-52
2022/02/01 07:24:00;;;;;;;8.10;1.20;;;;;;;-0.76;67.50;98580.56;1712934;82;21062;-52
2022/02/01 07:26:26;;;;;;;5.73;1.23;;;;;;;-0.73;67.45;98579.19;1716473;82;21288;-52
2022/02/01 07:28:53;;;;;;;4.93;1.30;;;;;;;-0.68;67.40;98574.66;1719318;82;21259;-53
2022/02/01 07:31:19;;;;;;;5.63;1.23;;;;;;;-0.64;67.30;98578.12;1714947;82;21080;-53
2022/02/01 07:33:46;;;;;;;5.67;1.37;;;;;;;-0.61;67.16;98576.30;1715266;82;22070;-53
2022/02/01 07:36:17;;;;;;;9.27;1.40;;;;;;;-0.59;67.05;98573.14;1714532;80;21057;-53
2022/02/01 07:38:44;;;;;;;5.93;1.30;;;;;;;-0.56;67.02;98577.05;1715145;82;21485;-53
2022/02/01 07:41:10;;;;;;;6.57;1.40;;;;;;;-0.53;66.96;98572.16;1728833;81;21056;-53
2022/02/01 07:43:37;;;;;;;5.77;1.63;;;;;;;-0.48;66.74;98584.35;1729551;81;21064;-51
2022/02/01 07:46:10;;;;;;;9.33;1.40;;;;;;;-0.45;66.72;98588.71;1732395;81;21166;-52
2022/02/01 07:48:35;;;;;;;4.60;1.10;;;;;;;-0.43;66.44;98586.91;1731361;81;21023;-53
2022/02/01 07:51:01;;;;;;;6.30;1.53;;;;;;;-0.43;66.41;98593.52;1727292;80;22290;-54
2022/02/01 07:53:28;;;;;;;10.83;1.43;;;;;;;-0.42;66.32;98591.27;1730261;81;21123;-52
2022/02/01 07:55:54;;;;;;;8.63;2.03;;;;;;;-0.40;66.28;98594.30;1726939;81;21230;-52
2022/02/01 07:58:20;;;;;;;10.50;2.03;;;;;;;-0.37;66.33;98594.69;1727765;81;21158;-53
2022/02/01 08:00:47;;;;;;;13.00;2.80;;;;;;;-0.34;66.32;98604.34;1728327;81;21082;-53
2022/02/01 08:03:13;;;;;;;10.13;1.87;;;;;;;-0.29;66.14;98605.95;1729227;81;21443;-53
2022/02/01 08:05:39;;;;;;;5.37;1.37;;;;;;;-0.25;66.01;98610.25;1728638;81;21087;-53
2022/02/01 08:08:06;;;;;;;7.83;1.40;;;;;;;-0.23;65.82;98604.94;1727329;81;21083;-52
2022/02/01 08:10:53;;;;;;;6.90;1.40;;;;;;;-0.22;65.73;98607.55;1728078;81;22396;-52
2022/02/01 08:14:08;;;;;;;5.77;1.03;;;;;;;-0.18;65.63;98607.91;1721192;81;21020;-53
2022/02/01 08:18:53;;;;;;;5.20;1.87;;;;;;;-0.09;65.50;98610.79;1730761;81;21076;-52
2022/02/01 08:21:22;;;;;;;5.13;1.20;;;;;;;-0.07;65.32;98624.38;1727697;81;21621;-51
2022/02/01 08:23:41;;;;;;;6.23;1.27;;;;;;;-0.03;65.23;98626.06;1729957;81;21318;-52
2022/02/01 08:26:07;;;;;;;5.93;1.53;;;;;;;-0.01;65.15;98623.38;1724905;81;21091;-52
2022/02/01 08:28:34;;;;;;;5.47;1.43;;;;;;;0.04;65.03;98624.58;1725035;81;21610;-53
2022/02/01 08:31:00;;;;;;;6.37;1.03;;;;;;;0.08;64.86;98625.81;1728980;81;22185;-52
2022/02/01 08:33:26;;;;;;;4.97;1.60;;;;;;;0.11;64.71;98632.78;1728728;81;21019;-53
2022/02/01 08:35:53;;;;;;;6.53;1.40;;;;;;;0.12;64.64;98621.30;1733570;81;21100;-53
2022/02/01 08:38:20;;;;;;;7.43;1.47;;;;;;;0.14;64.54;98623.45;1731064;81;21417;-53
2022/02/01 08:40:47;;;;;;;8.87;1.40;;;;;;;0.17;64.54;98631.33;1723953;81;21099;-52
2022/02/01 08:43:13;;;;;;;6.23;1.83;;;;;;;0.19;64.36;98629.05;1716685;82;21448;-53
2022/02/01 08:45:43;;;;;;;6.30;1.53;;;;;;;0.23;64.35;98629.84;1717492;82;21001;-53
2022/02/01 08:48:09;;;;;;;6.53;1.30;;;;;;;0.26;64.37;98628.43;1714996;82;21160;-52
2022/02/01 08:50:37;;;;;;;6.93;1.27;;;;;;;0.29;64.17;98640.27;1713935;82;21134;-53
2022/02/01 08:53:25;;;;;;;6.20;1.23;;;;;;;0.33;64.24;98642.83;1715719;82;21043;-51
2022/02/01 08:55:37;;;;;;;6.10;1.40;;;;;;;0.35;64.17;98635.69;1711836;82;21094;-52
2022/02/01 08:58:03;;;;;;;5.80;1.40;;;;;;;0.39;64.08;98641.79;1714230;82;21536;-54
2022/02/01 09:00:30;;;;;;;4.83;1.30;;;;;;;0.41;64.13;98645.73;1718891;82;21360;-51
2022/02/01 09:03:01;;;;;;;4.40;1.20;;;;;;;0.43;63.93;98639.91;1717215;82;20914;-53
2022/02/01 09:05:27;;;;;;;9.33;1.27;;;;;;;0.44;63.92;98645.18;1682355;84;20991;-51
2022/02/01 09:07:53;;;;;;;9.93;1.77;;;;;;;0.48;63.74;98645.53;1719855;82;20894;-52
2022/02/01 09:10:21;;;;;;;3.47;1.30;;;;;;;0.50;63.56;98639.75;1718411;82;20918;-52
2022/02/01 09:12:48;;;;;;;6.90;1.10;;;;;;;0.52;63.57;98636.59;1720688;82;21876;-52
2022/02/01 09:15:15;;;;;;;6.97;1.50;;;;;;;0.55;63.37;98637.84;1721181;82;22191;-52
2022/02/01 09:17:43;;;;;;;8.63;1.63;;;;;;;0.57;63.32;98636.03;1721769;82;20886;-52
2022/02/01 09:20:11;;;;;;;6.20;1.53;;;;;;;0.59;63.25;98640.84;1722779;82;20957;-53
2022/02/01 09:22:37;;;;;;;5.93;1.50;;;;;;;0.61;63.17;98642.97;1718703;81;21408;-53
2022/02/01 09:25:04;;;;;;;6.30;1.43;;;;;;;0.63;63.02;98641.16;1717811;82;21096;-53
2022/02/01 09:27:31;;;;;;;6.47;1.40;;;;;;;0.63;63.05;98635.86;1719752;82;20882;-54
2022/02/01 09:29:57;;;;;;;5.80;1.73;;;;;;;0.66;62.88;98638.45;1718053;82;20886;-53
2022/02/01 09:32:25;;;;;;;9.37;1.83;;;;;;;0.67;62.88;98639.31;1716204;82;20997;-53
2022/02/01 09:34:51;;;;;;;6.07;1.20;;;;;;;0.70;62.98;98639.21;1719896;82;20950;-51
2022/02/01 09:37:18;;;;;;;3.53;1.50;;;;;;;0.73;62.86;98632.52;1716384;82;22185;-54
2022/02/01 09:39:44;;;;;;;7.47;1.33;;;;;;;0.79;62.83;98632.34;1718922;82;20944;-53
2022/02/01 09:42:10;;;;;;;7.03;1.67;;;;;;;0.81;62.53;98623.91;1716742;82;21305;-51
2022/02/01 09:44:37;;;;;;;7.87;2.00;;;;;;;0.80;62.41;98628.80;1715446;82;21670;-52
2022/02/01 09:47:05;;;;;;;12.23;2.00;;;;;;;0.81;62.39;98625.69;1717979;82;21122;-52
2022/02/01 09:49:31;;;;;;;5.90;1.50;;;;;;;0.85;62.52;98623.39;1706448;82;22223;-53
2022/02/01 09:51:58;;;;;;;5.30;1.57;;;;;;;0.91;62.46;98629.83;1718249;82;21515;-53
2022/02/01 09:54:28;;;;;;;6.57;1.47;;;;;;;0.94;62.44;98624.43;1716063;82;21409;-54
2022/02/01 09:56:55;;;;;;;6.43;1.47;;;;;;;0.96;62.22;98623.94;1714691;82;21328;-52
2022/02/01 09:59:35;;;;;;;10.87;3.23;;;;;;;0.95;62.22;98620.42;1715130;82;21167;-53
2022/02/01 10:01:56;;;;;;;5.10;1.37;;;;;;;0.95;62.22;98627.05;1710754;82;21147;-52
2022/02/01 10:04:30;;;;;;;7.40;1.90;;;;;;;0.98;62.01;98632.72;1715642;82;21479;-51
2022/02/01 10:07:10;;;;;;;6.53;1.30;;;;;;;0.97;61.98;98627.88;1715722;82;21104;-53
2022/02/01 10:09:57;;;;;;;6.77;1.47;;;;;;;0.99;61.97;98627.39;1715935;82;21151;-53
2022/02/01 10:12:32;;;;;;;9.70;1.80;;;;;;;1.01;61.84;98630.88;1715956;82;21357;-52
2022/02/01 10:15:04;;;;;;;5.25;1.40;;;;;;;1.03;61.90;98636.10;1718663;82;22084;-53
2022/02/01 10:17:31;;;;;;;7.17;1.83;;;;;;;1.06;61.81;98640.00;1719687;82;21414;-52
2022/02/01 10:19:57;;;;;;;4.13;1.10;;;;;;;1.10;61.67;98644.32;1719635;82;20906;-51
2022/02/01 10:22:35;;;;;;;8.00;1.30;;;;;;;1.11;61.61;98645.58;1716479;82;21057;-52
2022/02/01 10:25:04;;;;;;;7.07;1.30;;;;;;;1.16;61.42;98636.19;1712173;82;20996;-52
2022/02/01 10:27:33;;;;;;;6.40;1.30;;;;;;;1.17;61.33;98644.56;1719024;82;21502;-52
2022/02/01 10:32:45;;;;;;;8.17;1.50;;;;;;;1.17;60.90;98640.59;1716089;82;21478;-53
2022/02/01 10:35:33;;;;;;;3.27;1.20;;;;;;;1.16;60.91;98638.84;1712676;82;21112;-52
2022/02/01 10:38:09;;;;;;;7.60;1.40;;;;;;;1.16;60.71;98635.32;1713403;82;21143;-52
2022/02/01 10:40:44;;;;;;;2.97;1.30;;;;;;;1.16;60.67;98642.81;1712324;82;21137;-52
2022/02/01 10:43:31;;;;;;;6.97;1.30;;;;;;;1.17;60.59;98644.56;1702786;82;21609;-53
2022/02/01 10:46:15;;;;;;;6.60;1.77;;;;;;;1.19;60.53;98642.74;1700633;83;21061;-52
2022/02/01 10:48:47;;;;;;;;;;;;;;;1.20;60.43;98637.83;1706850;83;20934;-52
2022/02/01 10:51:20;;;;;;;4.43;1.17;;;;;;;1.23;60.58;98642.18;1698989;83;20522;-52
2022/02/01 10:53:47;;;;;;;7.40;1.67;;;;;;;1.26;60.37;98641.65;1697635;83;21204;-52
2022/02/01 10:56:18;;;;;;;9.53;1.57;;;;;;;1.28;60.34;98651.73;1701731;83;21156;-53
2022/02/01 10:58:46;;;;;;;6.13;1.23;;;;;;;1.30;59.87;98647.71;1697288;83;21731;-53
2022/02/01 11:01:13;;;;;;;5.50;1.37;;;;;;;1.28;59.83;98648.20;1698489;83;21101;-53
2022/02/01 11:03:42;;;;;;;6.33;1.67;;;;;;;1.28;59.87;98643.77;1698239;83;21453;-52
2022/02/01 11:06:09;;;;;;;6.13;1.50;;;;;;;1.32;59.75;98641.47;1701192;83;21216;-53
2022/02/01 11:08:39;;;;;;;5.97;1.80;;;;;;;1.34;59.60;98649.38;1705209;83;21555;-52
2022/02/01 11:11:05;;;;;;;4.03;1.27;;;;;;;1.34;59.51;98642.30;1700898;83;21125;-52
2022/02/01 11:13:38;;;;;;;5.13;1.50;;;;;;;1.37;59.37;98630.71;1702172;83;21092;-52
2022/02/01 11:16:06;;;;;;;5.17;1.30;;;;;;;1.38;59.26;98633.78;1697724;83;20993;-53
2022/02/01 11:18:35;;;;;;;7.70;1.10;;;;;;;1.37;59.35;98644.84;1699209;83;21073;-53
2022/02/01 11:21:13;;;;;;;9.90;1.93;;;;;;;1.38;59.17;98645.70;1694495;82;22311;-52
2022/02/01 11:23:49;;;;;;;7.13;1.70;;;;;;;1.34;58.97;98640.97;1699796;82;21088;-49
2022/02/01 11:26:35;;;;;;;2.87;1.20;;;;;;;1.26;59.23;98641.65;1696684;83;21084;-52
2022/02/01 11:31:37;;;;;;;4.60;1.20;;;;;;;1.18;59.21;98646.30;1688703;82;21101;-51
2022/02/01 11:34:03;;;;;;;4.70;1.57;;;;;;;1.16;59.49;98641.95;1624707;86;21356;-51
2022/02/01 11:36:39;;;;;;;8.43;1.23;;;;;;;1.18;59.47;98634.83;1637203;84;21447;-52
2022/02/01 11:39:12;;;;;;;4.17;1.17;;;;;;;1.21;59.39;98637.37;1677061;84;21312;-51
2022/02/01 11:41:41;;;;;;;4.73;1.20;;;;;;;1.23;59.01;98639.08;1685252;83;21350;-52
2022/02/01 11:44:11;;;;;;;10.17;1.47;;;;;;;1.24;58.77;98638.63;1666307;85;21053;-52
2022/02/01 11:46:37;;;;;;;6.97;1.70;;;;;;;1.26;58.54;98639.45;1660654;85;21058;-52
2022/02/01 11:49:04;;;;;;;5.37;1.10;;;;;;;1.29;58.79;98634.91;1664885;85;21125;-52
2022/02/01 11:51:32;;;;;;;7.80;1.40;;;;;;;1.32;58.27;98636.16;1679626;83;21458;-52
2022/02/01 11:53:59;;;;;;;5.43;1.53;;;;;;;1.32;57.91;98630.86;1687957;83;22472;-52
2022/02/01 11:56:41;;;;;;;4.43;1.20;;;;;;;1.30;57.85;98637.98;1665178;85;21766;-52
2022/02/01 11:59:07;;;;;;;8.17;1.90;;;;;;;1.28;58.05;98626.55;1676673;84;21007;-52
2022/02/01 12:01:38;;;;;;;5.83;1.70;;;;;;;1.26;58.28;98629.72;1682490;84;20979;-52
2022/02/01 12:04:10;;;;;;;5.37;1.37;;;;;;;1.21;58.45;98625.44;1679852;84;21021;-53
2022/02/01 12:06:46;;;;;;;5.67;1.30;;;;;;;1.18;58.23;98635.70;1679673;84;20981;-53
2022/02/01 12:09:23;;;;;;;7.80;3.10;;;;;;;1.14;58.25;98634.91;1678708;84;21063;-53
2022/02/01 12:12:00;;;;;;;3.37;1.53;;;;;;;1.14;58.32;98636.69;1677283;84;20895;-53
2022/02/01 12:14:27;;;;;;;5.33;1.43;;;;;;;1.15;58.28;98635.77;1676542;84;21035;-53
2022/02/01 12:16:55;;;;;;;4.10;1.37;;;;;;;1.17;58.17;98633.95;1675766;84;20938;-51
2022/02/01 12:19:35;;;;;;;7.40;1.80;;;;;;;1.18;57.84;98630.85;1676326;84;20959;-53
2022/02/01 12:22:23;;;;;;;5.37;1.93;;;;;;;1.13;57.64;98633.61;1678600;84;21111;-52
2022/02/01 12:24:49;;;;;;;3.63;1.60;;;;;;;1.08;57.71;98632.44;1681111;84;21364;-53
2022/02/01 12:27:15;;;;;;;3.60;1.77;;;;;;;1.04;57.45;98641.37;1673419;84;20931;-53
2022/02/01 12:29:42;;;;;;;5.07;1.17;;;;;;;1.00;57.40;98638.86;1677180;84;21312;-52
2022/02/01 12:32:09;;;;;;;5.03;1.53;;;;;;;1.00;57.40;98634.88;1674360;84;20904;-53
2022/02/01 12:34:36;;;;;;;9.73;1.50;;;;;;;1.02;57.43;98639.20;1677900;84;22247;-52
2022/02/01 12:37:03;;;;;;;5.40;1.93;;;;;;;1.06;57.41;98648.83;1676128;84;20923;-52
2022/02/01 12:39:35;;;;;;;4.77;1.30;;;;;;;1.07;57.26;98648.38;1679369;84;21596;-52
2022/02/01 12:42:17;;;;;;;6.47;1.20;;;;;;;1.06;56.90;98648.83;1673154;84;20943;-53
2022/02/01 12:47:08;;;;;;;4.20;1.10;;;;;;;1.03;56.64;98649.35;1661984;85;21484;-53
2022/02/01 12:49:43;;;;;;;2.73;0.77;;;;;;;1.04;56.41;98651.09;1662389;85;21048;-54
2022/02/01 12:52:30;;;;;;;1.40;0.80;;;;;;;0.98;56.23;98653.47;1672528;84;21528;-52
2022/02/01 12:56:26;;;;;;;4.37;0.60;;;;;;;0.97;55.16;98647.75;1835507;75;26478;-53
2022/02/01 12:58:58;;;;;;;2.30;1.03;;;;;;;0.92;54.49;98652.32;1775258;78;21482;-54
2022/02/01 13:01:34;;;;;;;2.40;0.73;;;;;;;0.92;53.86;98647.02;1768718;78;21136;-54
2022/02/01 13:04:04;;;;;;;1.10;0.60;;;;;;;0.88;53.59;98644.48;1777103;78;21120;-52
2022/02/01 13:06:34;;;;;;;2.30;0.90;;;;;;;0.85;53.87;98644.58;1775554;78;20922;-53
2022/02/01 13:17:14;;;;;;;2.50;0.83;;;;;;;0.78;54.20;98669.02;1773582;78;20964;-54